createdAt,value
2023-05-12T00:00:08.792Z,0.00
2023-05-12T00:01:08.700Z,0.00
2023-05-12T00:02:08.778Z,0.00
2023-05-12T00:03:08.860Z,0.00
2023-05-12T00:04:08.748Z,0.00
2023-05-12T00:05:08.467Z,0.00
2023-05-12T00:06:08.453Z,0.00
2023-05-12T00:07:08.438Z,0.00
2023-05-12T00:08:09.776Z,0.00
2023-05-12T00:09:08.226Z,0.00
2023-05-12T00:10:08.206Z,0.00
2023-05-12T00:11:08.133Z,0.00
2023-05-12T00:12:08.058Z,0.00
2023-05-12T00:13:08.015Z,0.00
2023-05-12T00:14:07.972Z,0.00
2023-05-12T00:15:07.895Z,0.00
2023-05-12T00:16:07.796Z,0.00
2023-05-12T00:17:07.720Z,0.00
2023-05-12T00:18:07.746Z,0.00
2023-05-12T00:19:07.642Z,0.00
2023-05-12T00:20:07.580Z,0.00
2023-05-12T00:21:07.444Z,0.00
2023-05-12T00:22:07.440Z,0.00
2023-05-12T00:23:07.413Z,0.00
2023-05-12T00:24:07.330Z,0.00
2023-05-12T00:25:07.277Z,0.00
2023-05-12T00:26:07.163Z,0.00
2023-05-12T00:27:07.107Z,0.00
2023-05-12T00:28:07.032Z,0.00
2023-05-12T00:29:06.990Z,0.00
2023-05-12T00:30:06.938Z,0.00
2023-05-12T00:31:06.900Z,0.00
2023-05-12T00:32:06.811Z,0.00
2023-05-12T00:33:06.980Z,0.00
2023-05-12T00:34:06.688Z,0.00
2023-05-12T00:35:06.624Z,0.00
2023-05-12T00:36:06.566Z,0.00
2023-05-12T00:37:06.495Z,0.00
2023-05-12T00:38:06.491Z,0.00
2023-05-12T00:39:06.430Z,0.00
2023-05-12T00:40:06.315Z,0.00
2023-05-12T00:41:06.245Z,0.00
2023-05-12T00:42:06.182Z,0.00
2023-05-12T00:43:06.148Z,0.00
2023-05-12T00:44:06.043Z,0.00
2023-05-12T00:45:05.971Z,0.00
2023-05-12T00:46:05.930Z,0.00
2023-05-12T00:47:05.844Z,0.00
2023-05-12T00:48:05.811Z,0.00
2023-05-12T00:49:05.809Z,0.00
2023-05-12T00:50:05.650Z,0.00
2023-05-12T00:51:05.581Z,0.00
2023-05-12T00:52:05.710Z,0.00
2023-05-12T00:53:05.494Z,0.00
2023-05-12T00:54:05.399Z,0.00
2023-05-12T00:55:05.369Z,0.00
2023-05-12T00:56:05.285Z,0.00
2023-05-12T00:57:05.253Z,0.00
2023-05-12T00:58:05.174Z,0.00
2023-05-12T00:59:05.084Z,0.00
2023-05-12T01:00:05.228Z,0.00
2023-05-12T01:01:05.051Z,0.00
2023-05-12T01:02:04.948Z,0.00
2023-05-12T01:03:05.940Z,0.00
2023-05-12T01:04:04.815Z,0.00
2023-05-12T01:05:04.789Z,0.00
2023-05-12T01:06:04.650Z,0.00
2023-05-12T01:07:04.614Z,0.00
2023-05-12T01:08:04.586Z,0.00
2023-05-12T01:09:04.452Z,0.00
2023-05-12T01:10:04.481Z,0.00
2023-05-12T01:11:04.320Z,0.00
2023-05-12T01:12:04.277Z,0.00
2023-05-12T01:13:04.211Z,0.00
2023-05-12T01:14:04.204Z,0.00
2023-05-12T01:15:04.067Z,0.00
2023-05-12T01:16:04.055Z,0.00
2023-05-12T01:17:04.039Z,0.00
2023-05-12T01:18:03.956Z,0.00
2023-05-12T01:19:03.915Z,0.00
2023-05-12T01:20:03.803Z,0.00
2023-05-12T01:21:03.733Z,0.00
2023-05-12T01:22:03.669Z,0.00
2023-05-12T01:23:03.593Z,0.00
2023-05-12T01:24:03.574Z,0.00
2023-05-12T01:25:03.467Z,0.00
2023-05-12T01:26:03.426Z,0.00
2023-05-12T01:27:03.339Z,0.00
2023-05-12T01:28:03.351Z,0.00
2023-05-12T01:29:03.180Z,0.00
2023-05-12T01:30:03.129Z,0.00
2023-05-12T01:31:03.200Z,0.00
2023-05-12T01:32:03.059Z,0.00
2023-05-12T01:33:03.046Z,0.00
2023-05-12T01:34:02.964Z,0.00
2023-05-12T01:35:02.875Z,0.00
2023-05-12T01:36:02.802Z,0.00
2023-05-12T01:37:03.307Z,0.00
2023-05-12T01:38:02.638Z,0.00
2023-05-12T01:39:02.609Z,0.00
2023-05-12T01:40:02.591Z,0.00
2023-05-12T01:41:02.522Z,0.00
2023-05-12T01:42:02.381Z,0.00
2023-05-12T01:43:02.325Z,0.00
2023-05-12T01:44:02.262Z,0.00
2023-05-12T01:45:02.202Z,0.00
2023-05-12T01:46:02.140Z,0.00
2023-05-12T01:47:02.138Z,0.00
2023-05-12T01:48:02.048Z,0.00
2023-05-12T01:49:01.955Z,0.00
2023-05-12T01:50:01.951Z,0.00
2023-05-12T01:51:01.856Z,0.00
2023-05-12T01:52:01.862Z,0.00
2023-05-12T01:53:01.698Z,0.00
2023-05-12T01:54:01.661Z,0.00
2023-05-12T01:55:01.592Z,0.00
2023-05-12T01:56:01.542Z,0.00
2023-05-12T01:57:02.227Z,0.00
2023-05-12T01:58:01.446Z,0.00
2023-05-12T01:59:01.301Z,0.00
2023-05-12T02:00:01.304Z,0.00
2023-05-12T02:01:01.177Z,0.00
2023-05-12T02:02:01.145Z,0.00
2023-05-12T02:03:02.033Z,0.00
2023-05-12T02:04:01.096Z,0.00
2023-05-12T02:05:00.933Z,0.00
2023-05-12T02:06:00.943Z,0.00
2023-05-12T02:07:00.814Z,0.00
2023-05-12T02:08:00.740Z,0.00
2023-05-12T02:09:00.712Z,0.00
2023-05-12T02:10:00.662Z,0.00
2023-05-12T02:11:00.551Z,0.00
2023-05-12T02:12:00.470Z,0.00
2023-05-12T02:13:00.460Z,0.00
2023-05-12T02:14:00.451Z,0.00
2023-05-12T02:15:00.335Z,0.00
2023-05-12T02:16:00.359Z,0.00
2023-05-12T02:17:00.204Z,0.00
2023-05-12T02:18:00.180Z,0.00
2023-05-12T02:19:00.187Z,0.00
2023-05-12T02:20:00.045Z,0.00
2023-05-12T02:20:59.919Z,0.00
2023-05-12T02:21:59.894Z,0.00
2023-05-12T02:22:59.834Z,0.00
2023-05-12T02:23:59.875Z,0.00
2023-05-12T02:24:59.746Z,0.00
2023-05-12T02:25:59.621Z,0.00
2023-05-12T02:26:59.541Z,0.00
2023-05-12T02:27:59.525Z,0.00
2023-05-12T02:28:59.430Z,0.00
2023-05-12T02:29:59.407Z,0.00
2023-05-12T02:30:59.361Z,0.00
2023-05-12T02:31:59.263Z,0.00
2023-05-12T02:32:59.211Z,0.00
2023-05-12T02:33:59.157Z,0.00
2023-05-12T02:34:59.080Z,0.00
2023-05-12T02:35:59.031Z,0.00
2023-05-12T02:36:58.921Z,0.00
2023-05-12T02:37:59.769Z,0.00
2023-05-12T02:38:58.828Z,0.00
2023-05-12T02:39:58.817Z,0.00
2023-05-12T02:40:58.758Z,0.00
2023-05-12T02:41:58.642Z,0.00
2023-05-12T02:42:59.472Z,0.00
2023-05-12T02:43:58.526Z,0.00
2023-05-12T02:45:00.427Z,0.00
2023-05-12T02:45:59.020Z,0.00
2023-05-12T02:46:58.979Z,0.00
2023-05-12T02:47:59.020Z,0.00
2023-05-12T02:48:58.280Z,0.00
2023-05-12T02:49:58.172Z,0.00
2023-05-12T02:50:58.080Z,0.00
2023-05-12T02:51:58.064Z,0.00
2023-05-12T02:52:58.507Z,0.00
2023-05-12T02:53:57.880Z,0.00
2023-05-12T02:54:58.476Z,0.00
2023-05-12T02:55:57.718Z,0.00
2023-05-12T02:56:57.771Z,0.00
2023-05-12T02:57:58.987Z,0.00
2023-05-12T02:58:57.640Z,0.00
2023-05-12T02:59:57.527Z,0.00
2023-05-12T03:01:09.394Z,0.00
2023-05-12T03:01:57.536Z,0.00
2023-05-12T03:02:57.462Z,0.00
2023-05-12T03:03:57.273Z,0.00
2023-05-12T03:04:57.230Z,0.00
2023-05-12T03:05:57.159Z,0.00
2023-05-12T03:06:57.160Z,0.00
2023-05-12T03:07:56.987Z,0.00
2023-05-12T03:08:57.498Z,0.00
2023-05-12T03:09:56.854Z,0.00
2023-05-12T03:10:57.480Z,0.00
2023-05-12T03:11:56.799Z,0.00
2023-05-12T03:12:56.684Z,0.00
2023-05-12T03:13:57.272Z,0.00
2023-05-12T03:14:56.489Z,0.00
2023-05-12T03:15:56.457Z,0.00
2023-05-12T03:16:56.970Z,0.00
2023-05-12T03:17:56.424Z,0.00
2023-05-12T03:18:56.292Z,0.00
2023-05-12T03:19:56.240Z,0.00
2023-05-12T03:20:56.146Z,0.00
2023-05-12T03:21:56.143Z,0.00
2023-05-12T03:22:56.102Z,0.00
2023-05-12T03:23:55.930Z,0.00
2023-05-12T03:24:55.886Z,0.00
2023-05-12T03:25:55.961Z,0.00
2023-05-12T03:26:55.763Z,0.00
2023-05-12T03:27:55.736Z,0.00
2023-05-12T03:28:55.595Z,0.00
2023-05-12T03:29:55.602Z,0.00
2023-05-12T03:30:56.307Z,0.00
2023-05-12T03:31:55.504Z,0.00
2023-05-12T03:32:55.425Z,0.00
2023-05-12T03:33:55.316Z,0.00
2023-05-12T03:34:55.219Z,0.00
2023-05-12T03:35:55.201Z,0.00
2023-05-12T03:36:55.152Z,0.00
2023-05-12T03:37:55.130Z,0.00
2023-05-12T03:38:55.004Z,0.00
2023-05-12T03:39:55.719Z,0.00
2023-05-12T03:40:54.877Z,0.00
2023-05-12T03:41:54.860Z,0.00
2023-05-12T03:42:54.750Z,0.00
2023-05-12T03:43:54.850Z,0.00
2023-05-12T03:44:55.458Z,0.00
2023-05-12T03:45:54.652Z,0.00
2023-05-12T03:46:54.565Z,0.00
2023-05-12T03:47:55.252Z,0.00
2023-05-12T03:48:54.347Z,0.00
2023-05-12T03:49:55.265Z,0.00
2023-05-12T03:50:54.257Z,0.00
2023-05-12T03:51:54.188Z,0.00
2023-05-12T03:52:54.107Z,0.00
2023-05-12T03:53:54.118Z,5.62
2023-05-12T03:54:53.975Z,5.62
2023-05-12T03:55:53.925Z,5.62
2023-05-12T03:56:53.846Z,5.62
2023-05-12T03:57:53.787Z,5.62
2023-05-12T03:58:53.756Z,5.62
2023-05-12T03:59:53.722Z,5.62
2023-05-12T04:00:53.628Z,5.62
2023-05-12T04:01:54.305Z,5.62
2023-05-12T04:02:53.576Z,5.62
2023-05-12T04:03:53.623Z,5.62
2023-05-12T04:04:53.324Z,5.62
2023-05-12T04:05:53.271Z,5.62
2023-05-12T04:06:53.285Z,5.62
2023-05-12T04:07:53.157Z,5.62
2023-05-12T04:08:53.075Z,5.62
2023-05-12T04:09:53.160Z,5.62
2023-05-12T04:10:52.998Z,11.25
2023-05-12T04:11:52.910Z,11.25
2023-05-12T04:12:52.851Z,11.25
2023-05-12T04:13:52.813Z,11.25
2023-05-12T04:14:52.728Z,11.25
2023-05-12T04:15:53.459Z,11.25
2023-05-12T04:16:52.717Z,11.25
2023-05-12T04:17:52.617Z,11.25
2023-05-12T04:18:52.521Z,11.25
2023-05-12T04:19:52.473Z,11.25
2023-05-12T04:20:52.340Z,11.25
2023-05-12T04:21:52.291Z,11.25
2023-05-12T04:22:52.213Z,11.25
2023-05-12T04:23:52.184Z,16.88
2023-05-12T04:24:52.115Z,16.88
2023-05-12T04:25:52.037Z,16.88
2023-05-12T04:26:51.970Z,16.88
2023-05-12T04:27:52.795Z,16.88
2023-05-12T04:28:51.907Z,16.88
2023-05-12T04:29:51.812Z,16.88
2023-05-12T04:30:51.689Z,16.88
2023-05-12T04:31:51.695Z,16.88
2023-05-12T04:32:51.645Z,22.50
2023-05-12T04:33:51.533Z,22.50
2023-05-12T04:34:51.514Z,22.50
2023-05-12T04:35:51.395Z,22.50
2023-05-12T04:36:51.343Z,22.50
2023-05-12T04:37:51.309Z,28.12
2023-05-12T04:38:51.254Z,28.12
2023-05-12T04:39:51.159Z,28.12
2023-05-12T04:40:51.117Z,33.75
2023-05-12T04:41:51.056Z,33.75
2023-05-12T04:42:51.758Z,39.38
2023-05-12T04:44:50.917Z,45.00
2023-05-12T04:45:50.888Z,50.62
2023-05-12T04:46:50.743Z,50.62
2023-05-12T04:47:50.650Z,56.25
2023-05-12T04:48:50.676Z,56.25
2023-05-12T04:49:50.567Z,56.25
2023-05-12T04:50:50.488Z,56.25
2023-05-12T04:51:50.438Z,61.88
2023-05-12T04:52:50.351Z,61.88
2023-05-12T04:53:50.351Z,67.50
2023-05-12T04:54:50.239Z,73.12
2023-05-12T04:55:50.187Z,73.12
2023-05-12T04:56:50.150Z,78.75
2023-05-12T04:57:50.005Z,78.75
2023-05-12T04:58:50.060Z,73.12
2023-05-12T04:59:49.956Z,73.12
2023-05-12T05:00:49.832Z,78.75
2023-05-12T05:01:49.800Z,78.75
2023-05-12T05:02:49.796Z,73.12
2023-05-12T05:03:49.773Z,73.12
2023-05-12T05:04:49.641Z,73.12
2023-05-12T05:05:49.526Z,73.12
2023-05-12T05:06:49.453Z,73.12
2023-05-12T05:07:49.451Z,73.12
2023-05-12T05:08:49.362Z,73.12
2023-05-12T05:09:49.357Z,73.12
2023-05-12T05:10:49.207Z,73.12
2023-05-12T05:11:49.146Z,73.12
2023-05-12T05:12:49.072Z,78.75
2023-05-12T05:13:49.234Z,78.75
2023-05-12T05:14:49.021Z,78.75
2023-05-12T05:15:49.468Z,78.75
2023-05-12T05:16:48.825Z,84.38
2023-05-12T05:17:48.841Z,84.38
2023-05-12T05:18:48.739Z,84.38
2023-05-12T05:19:57.259Z,84.38
2023-05-12T05:20:57.377Z,84.38
2023-05-12T05:21:49.246Z,84.38
2023-05-12T05:22:48.505Z,84.38
2023-05-12T05:23:48.407Z,84.38
2023-05-12T05:24:48.373Z,90.00
2023-05-12T05:25:48.341Z,90.00
2023-05-12T05:26:48.193Z,90.00
2023-05-12T05:27:48.989Z,95.62
2023-05-12T05:28:48.060Z,95.62
2023-05-12T05:29:48.053Z,106.88
2023-05-12T05:30:48.125Z,118.12
2023-05-12T05:31:48.035Z,129.38
2023-05-12T05:32:48.478Z,129.38
2023-05-12T05:33:48.599Z,185.62
2023-05-12T05:34:47.724Z,151.88
2023-05-12T05:35:47.653Z,196.88
2023-05-12T05:36:47.580Z,123.75
2023-05-12T05:37:47.592Z,123.75
2023-05-12T05:38:47.477Z,185.62
2023-05-12T05:39:47.395Z,213.75
2023-05-12T05:40:53.752Z,146.25
2023-05-12T05:41:47.319Z,140.62
2023-05-12T05:42:47.238Z,146.25
2023-05-12T05:43:47.155Z,174.38
2023-05-12T05:44:47.084Z,298.12
2023-05-12T05:45:47.022Z,309.38
2023-05-12T05:46:47.022Z,286.88
2023-05-12T05:47:46.966Z,388.12
2023-05-12T05:48:46.961Z,450.00
2023-05-12T05:49:46.880Z,433.12
2023-05-12T05:50:47.457Z,253.12
2023-05-12T05:51:46.839Z,427.50
2023-05-12T05:52:46.665Z,163.12
2023-05-12T05:53:46.538Z,151.88
2023-05-12T05:54:46.531Z,146.25
2023-05-12T05:55:46.380Z,157.50
2023-05-12T05:56:46.373Z,168.75
2023-05-12T05:57:46.310Z,191.25
2023-05-12T05:58:46.287Z,191.25
2023-05-12T05:59:46.147Z,264.38
2023-05-12T06:00:46.128Z,371.25
2023-05-12T06:01:46.347Z,281.25
2023-05-12T06:02:46.094Z,236.25
2023-05-12T06:03:46.027Z,213.75
2023-05-12T06:04:46.144Z,292.50
2023-05-12T06:05:45.781Z,264.38
2023-05-12T06:06:45.804Z,365.62
2023-05-12T06:07:45.726Z,236.25
2023-05-12T06:08:45.650Z,275.62
2023-05-12T06:09:45.508Z,196.88
2023-05-12T06:10:45.643Z,174.38
2023-05-12T06:11:45.411Z,163.12
2023-05-12T06:12:45.390Z,157.50
2023-05-12T06:13:45.334Z,151.88
2023-05-12T06:14:45.237Z,151.88
2023-05-12T06:15:45.184Z,151.88
2023-05-12T06:16:45.148Z,146.25
2023-05-12T06:17:45.114Z,140.62
2023-05-12T06:18:45.168Z,135.00
2023-05-12T06:19:44.946Z,129.38
2023-05-12T06:20:44.872Z,123.75
2023-05-12T06:21:44.807Z,118.12
2023-05-12T06:22:44.715Z,112.50
2023-05-12T06:23:44.789Z,112.50
2023-05-12T06:24:44.607Z,112.50
2023-05-12T06:25:44.546Z,118.12
2023-05-12T06:26:45.453Z,118.12
2023-05-12T06:27:44.405Z,118.12
2023-05-12T06:28:44.405Z,118.12
2023-05-12T06:29:44.304Z,112.50
2023-05-12T06:30:44.959Z,106.88
2023-05-12T06:31:44.239Z,106.88
2023-05-12T06:32:44.125Z,106.88
2023-05-12T06:33:44.035Z,101.25
2023-05-12T06:34:44.012Z,101.25
2023-05-12T06:35:43.907Z,101.25
2023-05-12T06:36:43.910Z,106.88
2023-05-12T06:37:43.822Z,118.12
2023-05-12T06:38:43.765Z,140.62
2023-05-12T06:39:44.260Z,157.50
2023-05-12T06:40:43.683Z,191.25
2023-05-12T06:41:43.622Z,427.50
2023-05-12T06:42:43.471Z,264.38
2023-05-12T06:43:43.501Z,225.00
2023-05-12T06:44:43.384Z,213.75
2023-05-12T06:45:44.735Z,360.00
2023-05-12T06:46:43.320Z,337.50
2023-05-12T06:47:43.346Z,444.38
2023-05-12T06:48:43.158Z,286.88
2023-05-12T06:49:43.132Z,331.88
2023-05-12T06:50:43.041Z,337.50
2023-05-12T06:51:42.912Z,213.75
2023-05-12T06:52:42.930Z,180.00
2023-05-12T06:53:43.021Z,168.75
2023-05-12T06:54:42.706Z,151.88
2023-05-12T06:55:42.758Z,151.88
2023-05-12T06:56:42.637Z,708.75
2023-05-12T06:57:42.583Z,174.38
2023-05-12T06:58:42.490Z,337.50
2023-05-12T06:59:42.602Z,191.25
2023-05-12T07:00:42.352Z,157.50
2023-05-12T07:01:42.430Z,146.25
2023-05-12T07:02:42.276Z,157.50
2023-05-12T07:03:42.212Z,151.88
2023-05-12T07:04:42.157Z,163.12
2023-05-12T07:05:42.125Z,168.75
2023-05-12T07:06:42.735Z,208.12
2023-05-12T07:07:41.984Z,168.75
2023-05-12T07:08:41.896Z,185.62
2023-05-12T07:09:41.840Z,213.75
2023-05-12T07:10:42.955Z,292.50
2023-05-12T07:11:41.712Z,286.88
2023-05-12T07:12:41.728Z,331.88
2023-05-12T07:13:41.589Z,365.62
2023-05-12T07:14:41.523Z,376.88
2023-05-12T07:15:42.379Z,320.62
2023-05-12T07:16:41.387Z,421.88
2023-05-12T07:17:41.378Z,393.75
2023-05-12T07:18:41.547Z,405.00
2023-05-12T07:19:41.168Z,326.25
2023-05-12T07:20:41.200Z,590.62
2023-05-12T07:21:41.859Z,624.38
2023-05-12T07:22:41.816Z,433.12
2023-05-12T07:23:41.107Z,472.50
2023-05-12T07:24:43.117Z,298.12
2023-05-12T07:25:42.022Z,281.25
2023-05-12T07:26:40.803Z,281.25
2023-05-12T07:27:40.696Z,292.50
2023-05-12T07:28:41.584Z,286.88
2023-05-12T07:29:41.059Z,275.62
2023-05-12T07:30:42.955Z,292.50
2023-05-12T07:31:42.178Z,298.12
2023-05-12T07:32:44.442Z,360.00
2023-05-12T07:33:48.041Z,309.38
2023-05-12T07:34:41.032Z,337.50
2023-05-12T07:35:40.349Z,461.25
2023-05-12T07:36:40.912Z,455.62
2023-05-12T07:37:40.946Z,455.62
2023-05-12T07:38:41.086Z,382.50
2023-05-12T07:39:39.935Z,455.62
2023-05-12T07:40:39.900Z,472.50
2023-05-12T07:41:39.951Z,562.50
2023-05-12T07:42:40.436Z,478.12
2023-05-12T07:43:42.023Z,478.12
2023-05-12T07:44:39.739Z,444.38
2023-05-12T07:45:39.622Z,495.00
2023-05-12T07:46:40.969Z,376.88
2023-05-12T07:47:39.594Z,438.75
2023-05-12T07:48:39.444Z,495.00
2023-05-12T07:49:40.289Z,556.88
2023-05-12T07:50:39.445Z,405.00
2023-05-12T07:51:39.255Z,466.88
2023-05-12T07:52:39.148Z,438.75
2023-05-12T07:53:39.959Z,421.88
2023-05-12T07:54:39.035Z,433.12
2023-05-12T07:55:39.003Z,438.75
2023-05-12T07:56:39.002Z,399.38
2023-05-12T07:57:38.924Z,461.25
2023-05-12T07:58:38.849Z,399.38
2023-05-12T07:59:38.758Z,410.62
2023-05-12T08:00:38.731Z,416.25
2023-05-12T08:01:38.754Z,399.38
2023-05-12T08:02:38.680Z,371.25
2023-05-12T08:03:38.615Z,376.88
2023-05-12T08:04:38.454Z,382.50
2023-05-12T08:05:38.433Z,405.00
2023-05-12T08:06:38.306Z,388.12
2023-05-12T08:07:38.252Z,376.88
2023-05-12T08:08:38.255Z,337.50
2023-05-12T08:09:38.152Z,331.88
2023-05-12T08:10:38.150Z,337.50
2023-05-12T08:11:38.050Z,343.12
2023-05-12T08:12:37.974Z,337.50
2023-05-12T08:13:37.910Z,337.50
2023-05-12T08:14:37.913Z,326.25
2023-05-12T08:15:37.782Z,326.25
2023-05-12T08:16:37.806Z,320.62
2023-05-12T08:17:37.664Z,343.12
2023-05-12T08:18:37.732Z,303.75
2023-05-12T08:19:37.851Z,303.75
2023-05-12T08:20:37.444Z,286.88
2023-05-12T08:21:37.416Z,298.12
2023-05-12T08:22:37.391Z,331.88
2023-05-12T08:23:37.330Z,315.00
2023-05-12T08:24:37.225Z,354.38
2023-05-12T08:25:37.193Z,354.38
2023-05-12T08:26:37.122Z,376.88
2023-05-12T08:27:37.089Z,399.38
2023-05-12T08:28:37.021Z,343.12
2023-05-12T08:29:36.932Z,360.00
2023-05-12T08:30:37.518Z,388.12
2023-05-12T08:31:36.896Z,388.12
2023-05-12T08:32:36.892Z,320.62
2023-05-12T08:33:36.730Z,326.25
2023-05-12T08:34:36.576Z,326.25
2023-05-12T08:35:36.510Z,388.12
2023-05-12T08:36:36.485Z,365.62
2023-05-12T08:37:36.417Z,393.75
2023-05-12T08:38:36.422Z,500.62
2023-05-12T08:39:36.382Z,540.00
2023-05-12T08:40:36.751Z,427.50
2023-05-12T08:41:36.217Z,1012.50
2023-05-12T08:42:36.108Z,568.12
2023-05-12T08:43:36.049Z,568.12
2023-05-12T08:44:36.101Z,393.75
2023-05-12T08:45:35.963Z,495.00
2023-05-12T08:46:36.002Z,343.12
2023-05-12T08:47:35.859Z,714.38
2023-05-12T08:48:35.783Z,270.00
2023-05-12T08:49:35.711Z,258.75
2023-05-12T08:50:35.676Z,241.88
2023-05-12T08:51:35.603Z,225.00
2023-05-12T08:52:35.478Z,225.00
2023-05-12T08:53:35.444Z,219.38
2023-05-12T08:54:42.373Z,219.38
2023-05-12T08:55:36.236Z,225.00
2023-05-12T08:57:36.053Z,236.25
2023-05-12T08:58:41.710Z,236.25
2023-05-12T08:59:35.103Z,241.88
2023-05-12T09:00:35.053Z,247.50
2023-05-12T09:01:36.757Z,253.12
2023-05-12T09:02:48.350Z,258.75
2023-05-12T09:03:34.937Z,258.75
2023-05-12T09:04:34.872Z,258.75
2023-05-12T09:05:35.460Z,264.38
2023-05-12T09:06:35.027Z,264.38
2023-05-12T09:07:34.638Z,264.38
2023-05-12T09:08:34.558Z,275.62
2023-05-12T09:09:34.533Z,292.50
2023-05-12T09:10:35.739Z,281.25
2023-05-12T09:11:34.501Z,303.75
2023-05-12T09:12:34.322Z,286.88
2023-05-12T09:13:34.258Z,315.00
2023-05-12T09:14:37.411Z,376.88
2023-05-12T09:15:34.091Z,298.12
2023-05-12T09:16:34.239Z,309.38
2023-05-12T09:17:33.998Z,292.50
2023-05-12T09:18:33.966Z,315.00
2023-05-12T09:19:33.930Z,326.25
2023-05-12T09:20:34.919Z,320.62
2023-05-12T09:21:33.984Z,309.38
2023-05-12T09:22:33.697Z,326.25
2023-05-12T09:23:34.251Z,281.25
2023-05-12T09:24:33.694Z,298.12
2023-05-12T09:25:33.519Z,331.88
2023-05-12T09:26:33.460Z,365.62
2023-05-12T09:27:33.425Z,315.00
2023-05-12T09:28:33.315Z,309.38
2023-05-12T09:29:37.536Z,315.00
2023-05-12T09:30:33.217Z,450.00
2023-05-12T09:31:33.225Z,410.62
2023-05-12T09:32:33.353Z,388.12
2023-05-12T09:33:33.042Z,393.75
2023-05-12T09:34:32.977Z,399.38
2023-05-12T09:35:32.976Z,410.62
2023-05-12T09:36:32.831Z,376.88
2023-05-12T09:37:32.798Z,421.88
2023-05-12T09:38:32.745Z,450.00
2023-05-12T09:39:32.714Z,540.00
2023-05-12T09:40:32.618Z,1170.00
2023-05-12T09:41:32.567Z,1850.62
2023-05-12T09:42:32.497Z,2176.88
2023-05-12T09:43:32.505Z,2244.38
2023-05-12T09:44:32.339Z,2188.12
2023-05-12T09:45:32.377Z,2295.00
2023-05-12T09:46:32.323Z,2255.62
2023-05-12T09:47:32.215Z,2272.50
2023-05-12T09:48:33.020Z,1873.12
2023-05-12T09:49:32.093Z,343.12
2023-05-12T09:50:44.209Z,956.25
2023-05-12T09:51:32.000Z,1271.25
2023-05-12T09:52:33.414Z,1170.00
2023-05-12T09:53:33.498Z,871.88
2023-05-12T09:54:31.879Z,1012.50
2023-05-12T09:55:31.802Z,759.38
2023-05-12T09:56:31.660Z,478.12
2023-05-12T09:57:31.603Z,393.75
2023-05-12T09:58:31.629Z,343.12
2023-05-12T09:59:32.417Z,348.75
2023-05-12T10:00:43.388Z,388.12
2023-05-12T10:01:31.344Z,427.50
2023-05-12T10:02:31.455Z,438.75
2023-05-12T10:03:31.768Z,427.50
2023-05-12T10:04:31.263Z,405.00
2023-05-12T10:05:31.947Z,399.38
2023-05-12T10:06:31.109Z,399.38
2023-05-12T10:07:30.998Z,388.12
2023-05-12T10:08:31.446Z,376.88
2023-05-12T10:09:30.857Z,376.88
2023-05-12T10:10:30.857Z,399.38
2023-05-12T10:11:30.749Z,405.00
2023-05-12T10:12:30.702Z,427.50
2023-05-12T10:13:30.717Z,613.12
2023-05-12T10:14:30.630Z,742.50
2023-05-12T10:15:30.547Z,478.12
2023-05-12T10:16:30.537Z,388.12
2023-05-12T10:17:30.538Z,382.50
2023-05-12T10:18:30.349Z,360.00
2023-05-12T10:19:30.295Z,365.62
2023-05-12T10:20:30.966Z,320.62
2023-05-12T10:21:30.973Z,275.62
2023-05-12T10:22:30.980Z,376.88
2023-05-12T10:23:30.030Z,410.62
2023-05-12T10:24:31.466Z,343.12
2023-05-12T10:25:29.964Z,376.88
2023-05-12T10:26:29.835Z,354.38
2023-05-12T10:27:29.792Z,354.38
2023-05-12T10:28:30.260Z,225.00
2023-05-12T10:29:30.694Z,151.88
2023-05-12T10:30:29.698Z,129.38
2023-05-12T10:31:29.696Z,118.12
2023-05-12T10:32:30.488Z,101.25
2023-05-12T10:33:29.446Z,90.00
2023-05-12T10:34:29.559Z,84.38
2023-05-12T10:35:29.313Z,84.38
2023-05-12T10:36:29.287Z,84.38
2023-05-12T10:37:29.369Z,84.38
2023-05-12T10:38:29.989Z,84.38
2023-05-12T10:39:29.106Z,84.38
2023-05-12T10:40:28.983Z,84.38
2023-05-12T10:41:29.778Z,90.00
2023-05-12T10:42:28.935Z,90.00
2023-05-12T10:43:28.794Z,95.62
2023-05-12T10:44:28.750Z,101.25
2023-05-12T10:45:29.915Z,106.88
2023-05-12T10:46:30.411Z,106.88
2023-05-12T10:47:28.580Z,112.50
2023-05-12T10:48:28.545Z,112.50
2023-05-12T10:49:29.995Z,112.50
2023-05-12T10:50:28.992Z,112.50
2023-05-12T10:51:28.300Z,106.88
2023-05-12T10:52:29.116Z,106.88
2023-05-12T10:53:38.057Z,101.25
2023-05-12T10:54:28.225Z,95.62
2023-05-12T10:55:28.193Z,84.38
2023-05-12T10:56:28.399Z,78.75
2023-05-12T10:57:29.396Z,73.12
2023-05-12T10:58:29.317Z,73.12
2023-05-12T10:59:28.111Z,67.50
2023-05-12T11:00:28.564Z,73.12
2023-05-12T11:01:27.903Z,73.12
2023-05-12T11:02:28.178Z,78.75
2023-05-12T11:03:28.904Z,84.38
2023-05-12T11:04:27.684Z,84.38
2023-05-12T11:05:27.860Z,90.00
2023-05-12T11:06:27.727Z,95.62
2023-05-12T11:07:27.646Z,101.25
2023-05-12T11:08:28.375Z,106.88
2023-05-12T11:09:27.495Z,106.88
2023-05-12T11:10:27.355Z,112.50
2023-05-12T11:11:27.838Z,118.12
2023-05-12T11:12:27.068Z,123.75
2023-05-12T11:13:26.997Z,123.75
2023-05-12T11:14:26.976Z,129.38
2023-05-12T11:15:27.075Z,135.00
2023-05-12T11:16:26.912Z,140.62
2023-05-12T11:17:27.454Z,140.62
2023-05-12T11:18:26.751Z,135.00
2023-05-12T11:19:26.726Z,135.00
2023-05-12T11:20:28.784Z,129.38
2023-05-12T11:21:26.622Z,123.75
2023-05-12T11:22:28.039Z,118.12
2023-05-12T11:23:26.439Z,118.12
2023-05-12T11:24:26.312Z,112.50
2023-05-12T11:25:26.349Z,112.50
2023-05-12T11:26:27.037Z,112.50
2023-05-12T11:27:27.454Z,106.88
2023-05-12T11:28:26.126Z,106.88
2023-05-12T11:29:26.029Z,101.25
2023-05-12T11:30:25.989Z,95.62
2023-05-12T11:31:26.123Z,95.62
2023-05-12T11:32:26.037Z,101.25
2023-05-12T11:33:25.800Z,101.25
2023-05-12T11:34:26.473Z,101.25
2023-05-12T11:35:26.498Z,101.25
2023-05-12T11:36:25.589Z,101.25
2023-05-12T11:37:25.612Z,101.25
2023-05-12T11:38:25.435Z,101.25
2023-05-12T11:39:26.253Z,106.88
2023-05-12T11:40:25.404Z,106.88
2023-05-12T11:41:25.964Z,112.50
2023-05-12T11:42:25.993Z,118.12
2023-05-12T11:43:25.198Z,123.75
2023-05-12T11:44:25.116Z,129.38
2023-05-12T11:45:25.035Z,140.62
2023-05-12T11:46:25.077Z,146.25
2023-05-12T11:47:24.977Z,151.88
2023-05-12T11:48:24.876Z,157.50
2023-05-12T11:49:24.859Z,163.12
2023-05-12T11:50:24.778Z,163.12
2023-05-12T11:51:24.650Z,163.12
2023-05-12T11:52:24.656Z,163.12
2023-05-12T11:53:25.200Z,157.50
2023-05-12T11:54:24.765Z,146.25
2023-05-12T11:55:24.505Z,140.62
2023-05-12T11:56:24.949Z,135.00
2023-05-12T11:57:24.295Z,135.00
2023-05-12T11:58:24.266Z,129.38
2023-05-12T11:59:24.181Z,123.75
2023-05-12T12:00:24.149Z,123.75
2023-05-12T12:01:24.064Z,118.12
2023-05-12T12:02:24.093Z,123.75
2023-05-12T12:03:24.069Z,123.75
2023-05-12T12:04:23.888Z,129.38
2023-05-12T12:05:23.915Z,129.38
2023-05-12T12:06:23.811Z,135.00
2023-05-12T12:07:23.859Z,129.38
2023-05-12T12:08:23.652Z,129.38
2023-05-12T12:09:23.571Z,129.38
2023-05-12T12:10:23.575Z,129.38
2023-05-12T12:11:23.455Z,129.38
2023-05-12T12:12:23.472Z,129.38
2023-05-12T12:13:23.345Z,129.38
2023-05-12T12:14:23.278Z,135.00
2023-05-12T12:15:23.281Z,129.38
2023-05-12T12:16:23.223Z,129.38
2023-05-12T12:17:23.081Z,118.12
2023-05-12T12:18:23.210Z,118.12
2023-05-12T12:19:23.004Z,118.12
2023-05-12T12:20:23.513Z,118.12
2023-05-12T12:21:22.967Z,123.75
2023-05-12T12:22:22.776Z,129.38
2023-05-12T12:23:23.976Z,135.00
2023-05-12T12:24:22.714Z,140.62
2023-05-12T12:25:22.737Z,146.25
2023-05-12T12:26:22.601Z,151.88
2023-05-12T12:27:22.480Z,163.12
2023-05-12T12:28:22.956Z,219.38
2023-05-12T12:29:24.486Z,180.00
2023-05-12T12:30:22.338Z,140.62
2023-05-12T12:31:22.303Z,146.25
2023-05-12T12:32:22.219Z,135.00
2023-05-12T12:33:22.491Z,135.00
2023-05-12T12:34:22.966Z,140.62
2023-05-12T12:35:23.123Z,168.75
2023-05-12T12:36:21.980Z,135.00
2023-05-12T12:37:21.893Z,140.62
2023-05-12T12:38:21.855Z,146.25
2023-05-12T12:39:21.834Z,157.50
2023-05-12T12:40:22.640Z,140.62
2023-05-12T12:41:21.690Z,129.38
2023-05-12T12:42:21.559Z,151.88
2023-05-12T12:43:21.575Z,151.88
2023-05-12T12:44:21.436Z,123.75
2023-05-12T12:45:21.651Z,118.12
2023-05-12T12:46:21.664Z,123.75
2023-05-12T12:47:21.256Z,118.12
2023-05-12T12:48:21.245Z,118.12